Time;durP1;ratioP1;P1;durP2;ratioP2;P2;SDS_P1;SDS_P2;PMS_P1;PMS_P2;Temp;Humidity;BMP_temperature;BMP_pressure;BME280_temperature;BME280_humidity;BME280_pressure;Samples;Min_cycle;Max_cycle;Signal;HPM_P1;HPM_P2
2022/11/03 00:01:54;;;;;;;6.33;3.80;;;;;;;8.09;98.39;101630.34;4979853;28;20253;-53
2022/11/03 00:04:22;;;;;;;3.80;3.40;;;;;;;8.07;98.60;101626.84;4978002;28;20246;-53
2022/11/03 00:06:50;;;;;;;7.63;4.50;;;;;;;8.08;99.30;101633.84;4968379;28;20233;-54
2022/11/03 00:09:18;;;;;;;5.30;3.33;;;;;;;8.13;99.13;101623.47;4973309;28;20233;-53
2022/11/03 00:11:46;;;;;;;5.87;4.70;;;;;;;8.13;100.00;101626.09;4975925;28;20321;-54
2022/11/03 00:14:13;;;;;;;5.73;4.17;;;;;;;8.10;99.34;101621.66;4974365;28;20899;-54
2022/11/03 00:16:40;;;;;;;9.73;3.80;;;;;;;8.05;99.34;101625.03;4970552;28;20242;-53
2022/11/03 00:19:08;;;;;;;9.37;4.10;;;;;;;7.95;99.87;101621.31;4984491;28;20260;-54
2022/11/03 00:21:36;;;;;;;8.70;3.50;;;;;;;7.98;100.00;101617.88;4980937;28;20236;-52
2022/11/03 00:24:03;;;;;;;7.53;4.30;;;;;;;8.04;100.00;101616.31;4977032;28;20952;-54
2022/11/03 00:26:31;;;;;;;6.03;4.00;;;;;;;7.99;100.00;101607.44;4974003;28;20246;-53
2022/11/03 00:28:59;;;;;;;7.10;4.00;;;;;;;8.04;100.00;101607.59;4976120;28;20700;-54
2022/11/03 00:31:28;;;;;;;3.57;3.27;;;;;;;7.97;100.00;101611.78;4976301;28;20233;-53
2022/11/03 00:33:55;;;;;;;8.57;4.00;;;;;;;8.00;100.00;101626.63;4972789;28;20317;-53
2022/11/03 00:36:23;;;;;;;7.40;3.27;;;;;;;7.98;100.00;101610.94;4976975;28;20318;-53
2022/11/03 00:38:52;;;;;;;5.10;3.37;;;;;;;7.98;100.00;101605.69;4981724;28;20807;-54
2022/11/03 00:41:20;;;;;;;6.70;4.10;;;;;;;8.07;100.00;101607.63;4973044;28;20222;-52
2022/11/03 00:43:47;;;;;;;5.37;4.13;;;;;;;7.99;100.00;101609.19;4976215;28;20222;-53
2022/11/03 00:46:14;;;;;;;4.87;3.27;;;;;;;7.95;100.00;101597.78;4971592;28;20245;-53
2022/11/03 00:48:42;;;;;;;5.83;3.23;;;;;;;7.92;100.00;101591.59;4972321;28;20234;-53
2022/11/03 00:51:11;;;;;;;5.83;4.17;;;;;;;7.96;100.00;101594.31;4979853;28;20639;-53
2022/11/03 00:53:39;;;;;;;7.73;3.60;;;;;;;7.96;100.00;101589.06;4981608;28;20289;-53
2022/11/03 00:56:09;;;;;;;3.60;2.90;;;;;;;8.01;100.00;101586.59;4975025;28;20244;-53
2022/11/03 00:58:36;;;;;;;4.70;3.57;;;;;;;8.06;100.00;101584.94;4976445;28;20312;-52
2022/11/03 01:01:06;;;;;;;7.07;3.40;;;;;;;8.16;100.00;101584.31;4972018;28;20233;-57
2022/11/03 01:03:34;;;;;;;5.80;3.77;;;;;;;8.19;100.00;101586.13;4973240;28;20261;-57
2022/11/03 01:08:45;;;;;;;8.67;3.57;;;;;;;8.39;100.00;101582.25;4976697;28;20606;-54
2022/11/03 01:13:59;;;;;;;3.83;3.50;;;;;;;8.41;100.00;101584.88;4980136;28;20237;-53
2022/11/03 01:16:26;;;;;;;4.77;3.37;;;;;;;8.33;100.00;101576.84;4968125;28;20239;-53
2022/11/03 01:18:53;;;;;;;6.77;3.50;;;;;;;8.29;100.00;101573.28;4978231;28;21384;-52
2022/11/03 01:21:20;;;;;;;4.53;3.17;;;;;;;8.44;100.00;101583.22;4975905;28;20229;-54
2022/11/03 01:23:47;;;;;;;8.00;3.73;;;;;;;8.33;100.00;101590.81;4980731;28;20251;-54
2022/11/03 01:26:15;;;;;;;4.17;3.63;;;;;;;8.45;100.00;101584.09;4972729;28;20596;-53
2022/11/03 01:28:43;;;;;;;7.83;4.10;;;;;;;8.33;100.00;101580.34;4981545;28;20230;-54
2022/11/03 01:31:12;;;;;;;5.13;3.23;;;;;;;8.16;100.00;101580.81;4982757;28;20222;-52
2022/11/03 01:33:39;;;;;;;5.53;3.27;;;;;;;8.01;100.00;101584.84;4974656;28;20254;-54
2022/11/03 01:36:06;;;;;;;9.00;4.13;;;;;;;7.97;100.00;101585.63;4982366;28;20879;-53
2022/11/03 01:38:34;;;;;;;4.17;2.90;;;;;;;7.92;100.00;101582.00;4981132;28;20288;-55
2022/11/03 01:41:01;;;;;;;7.43;2.93;;;;;;;7.87;100.00;101579.28;4972641;28;20730;-54
2022/11/03 01:43:30;;;;;;;4.50;2.87;;;;;;;7.85;100.00;101578.38;4976772;28;20336;-52
2022/11/03 01:46:02;;;;;;;12.50;2.90;;;;;;;7.72;100.00;101570.19;4974817;28;20241;-53
2022/11/03 01:48:29;;;;;;;7.17;3.43;;;;;;;7.69;100.00;101567.50;4981472;28;20230;-54
2022/11/03 01:50:56;;;;;;;6.33;2.93;;;;;;;7.63;100.00;101579.59;4977843;28;20241;-54
2022/11/03 01:53:22;;;;;;;6.60;3.20;;;;;;;7.58;100.00;101567.25;4982409;28;20285;-53
2022/11/03 01:55:50;;;;;;;5.17;3.50;;;;;;;7.52;100.00;101574.94;4981524;28;20234;-53
2022/11/03 01:58:20;;;;;;;4.10;2.50;;;;;;;7.62;100.00;101566.50;4977434;28;20313;-53
2022/11/03 02:00:51;;;;;;;6.80;3.03;;;;;;;7.82;100.00;101553.88;4980470;28;20233;-53
2022/11/03 02:03:18;;;;;;;4.90;2.80;;;;;;;7.94;100.00;101554.19;4979349;28;20236;-54
2022/11/03 02:05:46;;;;;;;6.90;3.10;;;;;;;7.98;100.00;101540.31;4976204;28;20253;-54
2022/11/03 02:08:15;;;;;;;4.97;2.53;;;;;;;8.10;100.00;101540.56;4978127;28;20233;-54
2022/11/03 02:10:42;;;;;;;6.50;3.33;;;;;;;8.13;100.00;101548.50;4980368;28;20237;-53
2022/11/03 02:13:14;;;;;;;6.23;2.40;;;;;;;8.10;100.00;101547.53;4983863;28;20240;-53
2022/11/03 02:15:42;;;;;;;6.20;2.80;;;;;;;7.87;100.00;101541.81;4978545;28;20241;-53
2022/11/03 02:18:11;;;;;;;8.93;2.70;;;;;;;7.97;100.00;101542.88;4976828;28;20234;-54
2022/11/03 02:20:40;;;;;;;4.23;2.83;;;;;;;7.76;100.00;101538.06;4976978;28;20238;-53
2022/11/03 02:23:21;;;;;;;8.40;3.10;;;;;;;7.51;100.00;101532.25;4984462;28;20727;-53
2022/11/03 02:25:51;;;;;;;8.80;2.50;;;;;;;7.56;100.00;101535.84;4978539;28;20881;-54
2022/11/03 02:28:19;;;;;;;5.00;2.27;;;;;;;7.39;100.00;101534.56;4973654;28;20231;-54
2022/11/03 02:30:51;;;;;;;7.13;3.23;;;;;;;7.39;100.00;101532.81;4973454;28;20713;-53
2022/11/03 02:33:29;;;;;;;3.90;2.57;;;;;;;7.51;100.00;101527.03;4983840;28;20759;-54
2022/11/03 02:36:01;;;;;;;6.33;2.83;;;;;;;7.46;100.00;101530.38;4981886;28;22668;-53
2022/11/03 02:38:29;;;;;;;7.33;3.73;;;;;;;7.35;100.00;101532.72;4979419;28;20234;-53
2022/11/03 02:41:00;;;;;;;7.53;2.90;;;;;;;7.33;100.00;101535.28;4979587;28;20790;-53
2022/11/03 02:43:28;;;;;;;7.33;3.00;;;;;;;7.29;100.00;101533.44;4974878;28;20657;-54
2022/11/03 02:45:55;;;;;;;5.63;3.00;;;;;;;7.21;100.00;101532.38;4976683;28;20579;-53
2022/11/03 02:48:22;;;;;;;9.13;3.27;;;;;;;7.17;100.00;101531.41;4981003;28;20640;-53
2022/11/03 02:50:49;;;;;;;10.67;3.23;;;;;;;7.11;100.00;101530.38;4986364;28;20237;-52
2022/11/03 02:53:16;;;;;;;8.43;3.00;;;;;;;7.05;100.00;101525.84;4974013;28;20231;-53
2022/11/03 02:55:48;;;;;;;3.97;2.50;;;;;;;7.17;100.00;101523.56;4982457;28;20233;-53
2022/11/03 02:58:19;;;;;;;5.37;3.07;;;;;;;7.10;100.00;101516.44;4984512;28;20373;-53
2022/11/03 03:00:49;;;;;;;6.10;4.73;;;;;;;7.07;100.00;101513.75;4983645;28;20233;-54
2022/11/03 03:03:19;;;;;;;5.37;2.43;;;;;;;7.23;100.00;101503.66;4983970;28;20229;-54
2022/11/03 03:05:48;;;;;;;5.23;2.63;;;;;;;6.97;100.00;101508.25;4971414;28;20230;-54
2022/11/03 03:08:15;;;;;;;4.77;2.80;;;;;;;6.99;100.00;101494.38;4984219;28;20348;-54
2022/11/03 03:10:44;;;;;;;5.77;3.43;;;;;;;6.91;100.00;101495.91;4979301;28;20430;-53
2022/11/03 03:13:15;;;;;;;6.53;3.00;;;;;;;7.07;100.00;101491.97;4979547;28;20244;-52
2022/11/03 03:15:46;;;;;;;4.30;2.83;;;;;;;7.11;100.00;101496.41;4986601;28;20244;-53
2022/11/03 03:18:18;;;;;;;5.63;2.73;;;;;;;7.10;100.00;101499.88;4977389;28;20272;-52
2022/11/03 03:20:51;;;;;;;6.43;2.70;;;;;;;7.00;100.00;101505.72;4984648;28;20248;-54
2022/11/03 03:23:20;;;;;;;7.43;3.27;;;;;;;6.93;100.00;101504.66;4979224;28;20230;-52
2022/11/03 03:25:49;;;;;;;5.73;2.80;;;;;;;6.93;100.00;101496.84;4980413;28;20242;-54
2022/11/03 03:28:20;;;;;;;5.93;2.13;;;;;;;6.90;100.00;101488.91;4975026;28;20309;-52
2022/11/03 03:30:49;;;;;;;5.80;2.93;;;;;;;6.91;100.00;101499.41;4971571;28;20244;-55
2022/11/03 03:33:16;;;;;;;9.00;3.27;;;;;;;6.93;100.00;101492.50;4976424;28;20238;-53
2022/11/03 03:35:45;;;;;;;7.53;3.40;;;;;;;6.98;100.00;101492.59;4978514;28;20738;-53
2022/11/03 03:38:19;;;;;;;8.80;2.57;;;;;;;7.03;100.00;101491.00;4980715;28;20230;-53
2022/11/03 03:40:50;;;;;;;5.23;2.80;;;;;;;6.98;100.00;101487.38;4975491;28;20234;-53
2022/11/03 03:43:17;;;;;;;3.17;2.20;;;;;;;7.10;100.00;101486.84;4978010;28;20285;-54
2022/11/03 03:45:45;;;;;;;4.17;2.33;;;;;;;7.06;100.00;101487.59;4983272;28;20595;-53
2022/11/03 03:48:13;;;;;;;4.03;2.67;;;;;;;7.17;100.00;101478.31;4975836;28;20305;-53
2022/11/03 03:50:42;;;;;;;6.57;2.77;;;;;;;7.08;100.00;101484.16;4978719;28;20788;-53
2022/11/03 03:53:11;;;;;;;4.57;2.60;;;;;;;7.17;100.00;101478.31;4973720;28;20243;-53
2022/11/03 03:55:40;;;;;;;4.63;2.10;;;;;;;7.15;100.00;101490.44;4976065;28;20879;-53
2022/11/03 03:58:08;;;;;;;7.53;3.13;;;;;;;7.07;100.00;101482.41;4983378;28;20320;-52
2022/11/03 04:00:38;;;;;;;6.80;3.43;;;;;;;7.04;100.00;101482.31;4975050;28;20341;-53
2022/11/03 04:03:06;;;;;;;3.27;2.50;;;;;;;6.97;100.00;101479.53;4976215;28;20609;-53
2022/11/03 04:05:34;;;;;;;6.37;3.00;;;;;;;7.02;100.00;101470.97;4978793;28;20244;-54
2022/11/03 04:08:01;;;;;;;8.40;2.47;;;;;;;7.02;100.00;101473.59;4974290;28;20246;-54
2022/11/03 04:10:28;;;;;;;5.00;2.53;;;;;;;6.99;100.00;101472.63;4976047;28;20231;-54
2022/11/03 04:23:56;;;;;;;8.37;3.90;;;;;;;7.00;100.00;101464.81;4977008;28;20273;-53
2022/11/03 04:26:22;;;;;;;4.13;2.87;;;;;;;7.00;100.00;101464.81;4976087;28;20232;-53
2022/11/03 04:28:50;;;;;;;4.37;2.93;;;;;;;6.95;100.00;101458.63;4982424;28;20419;-53
2022/11/03 04:31:18;;;;;;;6.63;2.80;;;;;;;7.25;100.00;101460.19;4974746;28;20233;-53
2022/11/03 04:33:45;;;;;;;5.30;2.63;;;;;;;7.22;100.00;101465.34;4982893;28;20247;-54
2022/11/03 04:36:21;;;;;;;12.53;2.93;;;;;;;7.17;100.00;101460.03;4984280;28;20230;-54
2022/11/03 04:38:49;;;;;;;2.67;2.47;;;;;;;7.20;100.00;101456.63;4971703;28;20256;-54
2022/11/03 04:41:17;;;;;;;4.27;2.73;;;;;;;7.18;100.00;101454.81;4978410;28;20255;-53
2022/11/03 04:43:45;;;;;;;4.63;2.67;;;;;;;7.30;100.00;101451.66;4981946;28;20238;-53
2022/11/03 04:46:14;;;;;;;3.57;2.63;;;;;;;7.49;100.00;101450.34;4986013;28;20254;-54
2022/11/03 04:48:40;;;;;;;6.93;2.97;;;;;;;7.52;100.00;101444.31;4984642;28;20245;-56
2022/11/03 04:51:15;;;;;;;5.27;3.00;;;;;;;7.51;100.00;101438.19;4975614;28;20250;-53
2022/11/03 04:53:46;;;;;;;4.00;2.77;;;;;;;7.52;100.00;101434.72;4974744;28;20233;-54
2022/11/03 04:56:15;;;;;;;8.77;3.40;;;;;;;7.36;100.00;101437.81;4978783;28;20234;-54
2022/11/03 04:58:42;;;;;;;5.73;2.10;;;;;;;7.29;100.00;101431.56;4988864;28;20704;-54
2022/11/03 05:01:12;;;;;;;8.43;2.37;;;;;;;7.30;100.00;101427.22;4984566;28;20237;-54
2022/11/03 05:03:39;;;;;;;7.87;2.83;;;;;;;7.30;100.00;101427.22;4973823;28;20230;-54
2022/11/03 05:06:12;;;;;;;3.27;2.43;;;;;;;7.60;100.00;101433.16;4980065;28;20242;-54
2022/11/03 05:08:41;;;;;;;5.07;2.43;;;;;;;7.49;100.00;101429.44;4977601;28;20400;-55
2022/11/03 05:11:21;;;;;;;4.20;2.33;;;;;;;7.35;100.00;101426.50;4983383;28;20230;-53
2022/11/03 05:13:48;;;;;;;6.03;3.33;;;;;;;7.22;100.00;101419.22;4976006;28;20238;-54
2022/11/03 05:16:15;;;;;;;7.80;3.27;;;;;;;7.46;100.00;101413.69;4972749;28;20361;-54
2022/11/03 05:18:43;;;;;;;6.67;3.10;;;;;;;7.40;100.00;101413.53;4975548;28;20297;-53
2022/11/03 05:21:12;;;;;;;3.47;2.97;;;;;;;7.32;100.00;101409.88;4972923;28;20316;-53
2022/11/03 05:23:42;;;;;;;7.93;3.47;;;;;;;7.14;100.00;101400.75;4976027;28;20225;-54
2022/11/03 05:26:14;;;;;;;6.80;3.13;;;;;;;7.13;100.00;101404.22;4972114;28;20284;-53
2022/11/03 05:28:43;;;;;;;6.50;3.17;;;;;;;7.33;100.00;101386.38;4983762;28;20230;-53
2022/11/03 05:31:21;;;;;;;4.77;3.07;;;;;;;7.29;100.00;101386.28;4984145;28;20234;-54
2022/11/03 05:33:49;;;;;;;6.37;3.43;;;;;;;7.46;100.00;101391.91;4986747;28;20719;-53
2022/11/03 05:36:20;;;;;;;6.47;3.17;;;;;;;7.54;100.00;101385.97;4983069;28;20237;-54
2022/11/03 05:38:48;;;;;;;5.10;3.57;;;;;;;7.55;100.00;101384.28;4979180;28;20244;-52
2022/11/03 05:41:21;;;;;;;8.80;3.40;;;;;;;7.25;100.00;101366.19;4978891;28;20230;-53
2022/11/03 05:43:53;;;;;;;4.97;3.43;;;;;;;7.41;100.00;101373.53;4972185;28;20415;-53
2022/11/03 05:46:20;;;;;;;6.73;4.50;;;;;;;7.11;100.00;101377.19;4976915;28;20230;-53
2022/11/03 05:48:48;;;;;;;6.77;4.30;;;;;;;6.99;100.00;101383.88;4985566;28;20241;-52
2022/11/03 05:51:19;;;;;;;5.57;3.73;;;;;;;7.15;100.00;101378.13;4981754;28;20784;-53
2022/11/03 05:53:49;;;;;;;12.93;4.97;;;;;;;6.97;100.00;101375.97;4977938;28;20257;-54
2022/11/03 05:56:19;;;;;;;5.97;3.80;;;;;;;7.24;100.00;101380.09;4985776;28;20238;-55
2022/11/03 05:58:46;;;;;;;5.00;3.67;;;;;;;6.91;100.00;101375.81;4980589;28;20712;-54
2022/11/03 06:01:19;;;;;;;7.03;3.97;;;;;;;6.83;100.00;101380.88;4970800;28;20258;-54
2022/11/03 06:03:46;;;;;;;10.87;4.30;;;;;;;6.64;100.00;101386.47;4979539;28;20309;-53
2022/11/03 06:06:16;;;;;;;7.00;4.57;;;;;;;6.53;100.00;101388.81;4977315;28;20817;-54
2022/11/03 06:08:43;;;;;;;8.67;4.17;;;;;;;6.47;100.00;101391.25;4977936;28;20740;-54
2022/11/03 06:11:16;;;;;;;11.07;4.50;;;;;;;6.49;100.00;101399.09;4983833;28;20749;-53
2022/11/03 06:13:43;;;;;;;9.27;3.77;;;;;;;6.77;100.00;101395.47;4979339;28;20256;-55
2022/11/03 06:16:28;;;;;;;8.90;4.67;;;;;;;6.89;100.00;101394.06;4974718;28;20234;-53
2022/11/03 06:18:55;;;;;;;6.57;4.07;;;;;;;6.98;100.00;101397.75;4983737;28;20972;-53
2022/11/03 06:21:25;;;;;;;8.33;5.13;;;;;;;7.01;100.00;101397.81;4974573;28;20223;-54
2022/11/03 06:23:53;;;;;;;7.13;4.50;;;;;;;6.92;100.00;101399.38;4984444;28;20257;-54
2022/11/03 06:26:24;;;;;;;7.40;4.50;;;;;;;6.98;100.00;101402.97;4979530;28;20284;-53
2022/11/03 06:28:51;;;;;;;7.33;5.07;;;;;;;7.04;100.00;101404.00;4975874;28;20239;-54
2022/11/03 06:31:20;;;;;;;10.87;3.60;;;;;;;7.22;100.00;101405.28;4980505;28;20257;-53
2022/11/03 06:33:48;;;;;;;8.27;3.97;;;;;;;7.05;100.00;101400.53;4985323;28;20240;-53
2022/11/03 06:36:18;;;;;;;10.87;4.93;;;;;;;7.13;100.00;101403.34;4978901;28;20325;-53
2022/11/03 06:38:51;;;;;;;6.60;5.60;;;;;;;7.14;100.00;101394.66;4976650;28;20238;-55
2022/11/03 06:41:24;;;;;;;5.67;4.40;;;;;;;7.07;100.00;101388.41;4973651;28;20227;-53
2022/11/03 06:43:51;;;;;;;5.63;3.80;;;;;;;7.17;100.00;101387.78;4976477;28;20388;-54
2022/11/03 06:46:20;;;;;;;7.17;3.77;;;;;;;7.04;100.00;101382.22;4975785;28;20243;-54
2022/11/03 06:48:47;;;;;;;7.33;4.20;;;;;;;7.08;100.00;101377.09;4976544;28;20238;-54
2022/11/03 06:51:20;;;;;;;11.77;4.57;;;;;;;7.06;100.00;101381.44;4980518;28;20308;-55
2022/11/03 06:53:47;;;;;;;9.07;3.70;;;;;;;6.82;100.00;101371.28;4986400;28;20238;-53
2022/11/03 06:56:16;;;;;;;5.00;3.63;;;;;;;6.99;100.00;101370.81;4977128;28;20301;-54
2022/11/03 06:58:47;;;;;;;7.20;3.90;;;;;;;7.03;100.00;101364.81;4981141;28;20225;-54
2022/11/03 07:01:16;;;;;;;5.97;4.10;;;;;;;7.02;100.00;101357.81;4978377;28;20235;-54
2022/11/03 07:03:43;;;;;;;10.00;4.27;;;;;;;7.07;100.00;101366.66;4977633;28;20254;-53
2022/11/03 07:06:20;;;;;;;6.10;3.87;;;;;;;7.03;100.00;101368.31;4976538;28;20230;-54
2022/11/03 07:08:48;;;;;;;8.07;4.23;;;;;;;6.93;100.00;101364.59;4980539;28;20234;-53
2022/11/03 07:11:17;;;;;;;7.23;4.00;;;;;;;6.87;100.00;101364.44;4981008;28;20238;-53
2022/11/03 07:13:46;;;;;;;10.20;4.10;;;;;;;6.93;100.00;101363.72;4973689;28;21224;-53
2022/11/03 07:16:14;;;;;;;6.93;3.07;;;;;;;7.06;100.00;101364.88;4984197;28;20716;-54
2022/11/03 07:18:41;;;;;;;12.67;5.20;;;;;;;7.10;100.00;101367.59;4976161;28;21067;-54
2022/11/03 07:21:34;;;;;;;4.70;3.80;;;;;;;7.32;100.00;101362.84;4975284;28;20230;-54
2022/11/03 07:24:03;;;;;;;10.60;4.10;;;;;;;7.31;100.00;101361.09;4977924;28;20301;-54
2022/11/03 07:26:32;;;;;;;11.87;4.10;;;;;;;7.31;100.00;101363.72;4979422;28;20315;-58
2022/11/03 07:29:01;;;;;;;9.47;3.73;;;;;;;7.42;100.00;101375.28;4979295;28;21012;-55
2022/11/03 07:31:28;;;;;;;5.83;3.43;;;;;;;7.47;100.00;101375.38;4973866;28;20596;-53
2022/11/03 07:33:57;;;;;;;7.47;4.40;;;;;;;7.47;100.00;101376.25;4973614;28;20274;-54
2022/11/03 07:36:25;;;;;;;12.07;4.33;;;;;;;7.55;100.00;101377.31;4976366;28;20244;-53
2022/11/03 07:38:53;;;;;;;4.17;3.80;;;;;;;7.51;100.00;101374.59;4979542;28;20233;-54
2022/11/03 07:41:21;;;;;;;3.73;3.37;;;;;;;7.56;100.00;101376.47;4978011;28;20246;-53
2022/11/03 07:43:54;;;;;;;9.53;3.93;;;;;;;7.60;100.00;101382.63;4980126;28;20326;-53
2022/11/03 07:46:23;;;;;;;7.00;3.83;;;;;;;7.70;100.00;101371.53;4985038;28;20338;-53
2022/11/03 07:48:51;;;;;;;7.60;3.70;;;;;;;7.86;100.00;101373.63;4971040;28;20235;-54
2022/11/03 07:51:21;;;;;;;7.23;4.03;;;;;;;8.06;100.00;101360.91;4981374;28;20236;-53
2022/11/03 07:53:49;;;;;;;8.37;3.93;;;;;;;8.04;100.00;101352.19;4974388;28;20226;-54
2022/11/03 07:56:19;;;;;;;6.70;3.93;;;;;;;8.25;100.00;101356.03;4978539;28;20254;-53
2022/11/03 07:58:47;;;;;;;5.40;3.57;;;;;;;8.20;100.00;101349.84;4970657;28;20704;-53
2022/11/03 08:01:32;;;;;;;6.93;3.13;;;;;;;8.19;100.00;101346.34;4975714;28;20233;-53
2022/11/03 08:04:03;;;;;;;5.50;3.13;;;;;;;8.26;100.00;101332.53;4980406;28;20321;-53
2022/11/03 08:06:29;;;;;;;5.07;4.00;;;;;;;8.64;100.00;101331.47;4975648;28;20237;-52
2022/11/03 08:08:56;;;;;;;7.90;3.77;;;;;;;8.54;100.00;101328.69;4974827;28;20244;-53
2022/11/03 08:11:23;;;;;;;6.93;3.67;;;;;;;8.56;100.00;101328.69;4977206;28;20237;-54
2022/11/03 08:13:50;;;;;;;4.43;3.67;;;;;;;8.70;100.00;101327.19;4978479;28;20230;-55
2022/11/03 08:16:17;;;;;;;8.37;3.57;;;;;;;8.68;99.98;101328.03;4969940;28;20229;-53
2022/11/03 08:18:45;;;;;;;7.53;3.20;;;;;;;8.72;100.00;101320.25;4977173;28;20234;-54
2022/11/03 08:21:12;;;;;;;6.17;3.33;;;;;;;8.72;100.00;101320.25;4978414;28;20226;-54
2022/11/03 08:23:39;;;;;;;7.10;3.27;;;;;;;8.75;98.18;101320.31;4977851;28;20269;-54
2022/11/03 08:26:06;;;;;;;9.47;3.93;;;;;;;8.73;97.21;101308.03;4976893;28;20723;-53
2022/11/03 08:28:33;;;;;;;7.77;4.40;;;;;;;8.69;97.68;101307.13;4976834;28;20740;-54
2022/11/03 08:31:03;;;;;;;8.83;3.40;;;;;;;8.63;98.04;101300.91;4974703;28;20234;-54
2022/11/03 08:33:31;;;;;;;10.10;4.30;;;;;;;8.66;97.39;101300.94;4977272;28;20277;-55
2022/11/03 08:35:59;;;;;;;5.10;3.60;;;;;;;8.76;98.33;101292.38;4973030;28;20238;-53
2022/11/03 08:38:26;;;;;;;7.97;3.27;;;;;;;8.86;98.32;101291.66;4978230;28;20322;-55
2022/11/03 08:40:53;;;;;;;11.60;4.17;;;;;;;8.98;99.87;101293.56;4979531;28;20232;-55
2022/11/03 08:43:20;;;;;;;6.43;3.50;;;;;;;9.25;95.96;101290.47;4972276;28;20237;-54
2022/11/03 08:45:46;;;;;;;5.10;4.23;;;;;;;9.40;96.70;101282.78;4971175;28;20238;-55
2022/11/03 08:48:13;;;;;;;8.40;3.23;;;;;;;9.51;94.96;101285.56;4978205;28;20289;-53
2022/11/03 08:50:40;;;;;;;5.77;3.73;;;;;;;9.43;93.06;101271.47;4978814;28;20727;-54
2022/11/03 08:53:08;;;;;;;5.03;3.53;;;;;;;9.76;93.38;101277.13;4979976;28;20238;-55
2022/11/03 08:55:35;;;;;;;8.93;3.90;;;;;;;9.71;90.80;101275.31;4975581;28;20246;-60
2022/11/03 08:58:02;;;;;;;9.43;4.03;;;;;;;9.67;89.38;101260.41;4978782;28;20241;-53
2022/11/03 09:00:28;;;;;;;11.43;3.40;;;;;;;9.76;90.92;101252.66;4980065;28;20250;-53
2022/11/03 09:02:55;;;;;;;4.67;2.97;;;;;;;9.95;91.32;101262.44;4973885;28;20242;-53
2022/11/03 09:05:22;;;;;;;5.53;3.00;;;;;;;9.94;87.53;101263.31;4975472;28;20238;-53
2022/11/03 09:07:49;;;;;;;5.40;2.97;;;;;;;10.05;90.27;101247.69;4977805;28;20223;-53
2022/11/03 09:10:17;;;;;;;8.50;2.97;;;;;;;10.15;88.52;101249.53;4975124;28;20233;-53
2022/11/03 09:12:44;;;;;;;6.87;2.33;;;;;;;10.27;86.46;101248.78;4975287;28;20276;-54
2022/11/03 09:15:11;;;;;;;7.57;3.13;;;;;;;10.24;85.45;101248.72;4979032;28;20242;-55
2022/11/03 09:17:38;;;;;;;6.53;2.60;;;;;;;10.33;85.92;101234.84;4977122;28;20234;-54
2022/11/03 09:20:06;;;;;;;6.87;2.83;;;;;;;10.31;84.57;101229.56;4973421;28;20250;-58
2022/11/03 09:22:33;;;;;;;5.17;2.33;;;;;;;10.42;84.01;101225.28;4979012;28;20293;-53
2022/11/03 09:24:59;;;;;;;8.07;2.93;;;;;;;10.44;84.58;101223.56;4980884;28;20634;-54
2022/11/03 09:27:28;;;;;;;4.33;2.77;;;;;;;10.45;87.25;101217.44;4980030;28;20606;-53
2022/11/03 09:29:54;;;;;;;3.80;2.37;;;;;;;10.42;83.75;101217.41;4972065;28;20261;-53
2022/11/03 09:32:21;;;;;;;6.37;2.77;;;;;;;10.48;84.91;101212.19;4981076;28;20855;-54
2022/11/03 09:34:48;;;;;;;4.60;2.47;;;;;;;10.51;84.62;101206.09;4968270;28;20241;-54
2022/11/03 09:37:15;;;;;;;5.10;3.20;;;;;;;10.59;83.72;101211.41;4980579;28;20226;-54
2022/11/03 09:39:42;;;;;;;10.57;3.10;;;;;;;10.56;81.79;101206.13;4981113;28;20237;-53
2022/11/03 09:42:10;;;;;;;3.83;2.30;;;;;;;10.50;81.80;101213.09;4975709;28;20321;-54
2022/11/03 09:44:39;;;;;;;8.03;2.73;;;;;;;10.64;81.45;101201.81;4979851;28;20233;-53
2022/11/03 09:47:06;;;;;;;6.83;2.47;;;;;;;10.49;81.52;101213.97;4978087;28;20484;-54
2022/11/03 09:49:34;;;;;;;6.10;2.50;;;;;;;10.51;82.18;101190.34;4984023;28;20234;-53
2022/11/03 09:52:02;;;;;;;8.17;3.23;;;;;;;10.49;81.46;101186.81;4978668;28;20245;-53
2022/11/03 09:54:29;;;;;;;4.90;2.33;;;;;;;10.56;81.83;101193.00;4975783;28;20253;-54
2022/11/03 09:56:57;;;;;;;5.23;2.60;;;;;;;10.70;80.21;101193.97;4976151;28;20238;-54
2022/11/03 09:59:24;;;;;;;5.53;2.30;;;;;;;10.79;80.13;101180.00;4971986;28;20325;-55
2022/11/03 10:01:53;;;;;;;7.60;2.50;;;;;;;10.92;78.64;101182.72;4974034;28;20237;-54
2022/11/03 10:04:21;;;;;;;7.53;2.30;;;;;;;10.87;78.56;101168.66;4981449;28;20226;-54
2022/11/03 10:06:48;;;;;;;5.93;2.37;;;;;;;10.89;77.55;101166.94;4981828;28;20779;-53
2022/11/03 10:09:19;;;;;;;4.03;2.63;;;;;;;10.88;77.78;101175.69;4981155;28;20748;-54
2022/11/03 10:11:47;;;;;;;2.30;2.03;;;;;;;11.14;78.61;101164.41;4976757;28;20252;-53
2022/11/03 10:14:15;;;;;;;3.73;2.50;;;;;;;11.30;77.52;101155.72;4982830;28;20227;-54
2022/11/03 10:16:42;;;;;;;5.70;2.50;;;;;;;11.42;75.05;101153.09;4985436;28;20268;-53
2022/11/03 10:19:12;;;;;;;4.80;2.50;;;;;;;11.29;74.74;101146.03;4978426;28;20254;-55
2022/11/03 10:21:39;;;;;;;6.03;2.60;;;;;;;11.34;76.77;101143.44;4982987;28;20241;-54
2022/11/03 10:24:07;;;;;;;5.33;2.50;;;;;;;11.36;76.53;101145.19;4982930;28;20234;-53
2022/11/03 10:26:43;;;;;;;7.60;1.83;;;;;;;11.36;74.62;101139.94;4977073;28;20246;-53
2022/11/03 10:29:18;;;;;;;5.20;2.10;;;;;;;11.35;77.30;101139.94;4982112;28;20230;-52
2022/11/03 10:31:48;;;;;;;5.03;1.90;;;;;;;11.27;75.89;101137.31;4986485;28;20225;-53
2022/11/03 10:34:26;;;;;;;4.80;2.27;;;;;;;11.44;76.20;101125.06;4977721;28;20234;-53
2022/11/03 10:37:11;;;;;;;8.07;2.30;;;;;;;11.35;75.89;101130.28;4983934;28;20245;-54
2022/11/03 10:39:37;;;;;;;7.22;2.20;;;;;;;11.38;75.96;101121.53;4984504;28;20700;-55
2022/11/03 10:42:04;;;;;;;6.17;1.93;;;;;;;11.51;74.64;101119.78;4978023;28;20245;-53
2022/11/03 10:44:31;;;;;;;6.03;1.90;;;;;;;11.57;76.45;101119.81;4982015;28;20245;-54
2022/11/03 10:46:58;;;;;;;4.07;1.85;;;;;;;11.58;76.97;101111.94;4981617;28;20237;-53
2022/11/03 10:49:28;;;;;;;6.93;2.33;;;;;;;11.74;76.07;101106.69;4984275;28;20245;-53
2022/11/03 10:52:02;;;;;;;4.03;1.73;;;;;;;11.60;75.37;101097.03;4984609;28;20684;-53
2022/11/03 10:54:29;;;;;;;7.40;2.25;;;;;;;11.55;75.49;101100.50;4982562;28;20258;-54
2022/11/03 10:56:55;;;;;;;5.73;2.33;;;;;;;11.56;76.36;101091.78;4984383;28;20277;-54
2022/11/03 10:59:26;;;;;;;6.15;2.00;;;;;;;11.61;76.07;101092.63;4985700;28;20230;-54
2022/11/03 11:01:52;;;;;;;7.70;2.28;;;;;;;11.66;77.07;101090.91;4974782;28;20659;-53
2022/11/03 11:04:20;;;;;;;7.40;2.53;;;;;;;11.71;77.52;101087.38;4979999;28;20249;-53
2022/11/03 11:06:48;;;;;;;4.23;1.90;;;;;;;11.87;77.68;101083.03;4984871;28;20269;-54
2022/11/03 11:09:22;;;;;;;7.03;2.15;;;;;;;11.86;76.93;101076.03;4977948;28;20245;-55
2022/11/03 11:12:02;;;;;;;3.25;1.85;;;;;;;11.73;76.26;101076.88;4979407;28;20241;-55
2022/11/03 11:14:38;;;;;;;4.00;2.38;;;;;;;11.78;76.74;101079.50;4982752;28;20229;-54
2022/11/03 11:17:05;;;;;;;6.15;2.13;;;;;;;11.73;76.26;101068.97;4984450;28;20237;-54
2022/11/03 11:20:09;;;;;;;6.07;2.30;;;;;;;11.89;77.58;101060.22;4984393;28;20229;-53
2022/11/03 11:22:37;;;;;;;3.88;1.92;;;;;;;11.86;78.25;101057.63;4983240;28;20241;-53
2022/11/03 11:25:04;;;;;;;4.05;1.70;;;;;;;11.87;75.83;101046.19;4986063;28;20241;-52
2022/11/03 11:27:57;;;;;;;3.97;2.35;;;;;;;11.87;77.13;101048.84;4985275;28;20358;-53
2022/11/03 11:33:46;;;;;;;6.43;2.25;;;;;;;12.01;75.86;101034.78;4911557;28;20311;-55
2022/11/03 11:36:23;;;;;;;3.42;2.05;;;;;;;12.04;76.26;101037.38;4971316;28;20249;-52
2022/11/03 11:39:01;;;;;;;6.45;2.33;;;;;;;11.98;75.83;101033.03;4978995;28;20329;-53
2022/11/03 11:42:08;;;;;;;4.40;2.22;;;;;;;11.92;77.88;101023.38;4979858;28;20344;-52
2022/11/03 11:44:53;;;;;;;4.82;2.15;;;;;;;12.03;77.13;101019.84;4978450;28;20318;-53
2022/11/03 11:47:28;;;;;;;4.30;1.90;;;;;;;12.20;76.97;101009.28;4978650;28;20230;-53
2022/11/03 11:50:17;;;;;;;4.93;2.70;;;;;;;12.11;76.98;101010.16;4986005;28;20253;-54
2022/11/03 11:52:45;;;;;;;4.40;2.13;;;;;;;12.21;76.27;101003.13;4979955;28;20260;-52
2022/11/03 11:55:22;;;;;;;3.63;2.05;;;;;;;12.13;76.14;101003.16;4980898;28;20704;-53